Avilla, Missouri
Current Conditions -  °F | °C
As of 2:53 AM on Sunday 21 Dec 2014 (Local Time) from KJLN Reporting Station
Overcast Overcast  
Wind Chill: 38°   Ceiling: 1900
Heat Index: 43°   Visibility: 10mi
Dew Point: 38°   Wind: 9mph
Humidity: 82%   Direction: 160°SSE
Pressure: 30.12"   Gusts: NA
Location:  37.2°N, 94.13°W
Report Text: KJLN 210853Z AUTO 16008KT 10SM SCT015 OVC019 06/03 A3012 RMK AO2 SLP203 T00610033 58016 $
Loading
Personal Weather Stations






























Interactive Weather Map New forecast layout! Learn more

10-Day Weather Forecast

Advertisements
Track Severe Weather on mobile